createdAt,value
2023-06-19T00:04:05.613Z,100236.97
2023-06-19T00:09:08.023Z,100233.53
2023-06-19T00:14:09.606Z,100230.06
2023-06-19T00:19:11.808Z,100232.44
2023-06-19T00:24:13.414Z,100231.00
2023-06-19T00:29:14.988Z,100242.56
2023-06-19T00:34:16.595Z,100237.00
2023-06-19T00:39:18.251Z,100237.75
2023-06-19T00:44:19.956Z,100238.84
2023-06-19T00:49:21.844Z,100241.75
2023-06-19T00:54:23.741Z,100229.44
2023-06-19T00:59:25.247Z,100236.16
2023-06-19T01:04:26.839Z,100228.31
2023-06-19T01:09:38.082Z,100233.13
2023-06-19T01:14:51.181Z,100229.03
2023-06-19T01:19:52.609Z,100220.88
2023-06-19T01:24:54.132Z,100223.00
2023-06-19T01:29:55.975Z,100215.31
2023-06-19T01:34:59.627Z,100218.22
2023-06-19T01:40:05.568Z,100201.94
2023-06-19T01:45:07.878Z,100192.78
2023-06-19T01:50:10.484Z,100193.19
2023-06-19T01:55:12.170Z,100185.66
2023-06-19T02:00:13.921Z,100196.59
2023-06-19T02:05:18.429Z,100198.28
2023-06-19T02:10:20.009Z,100189.75
2023-06-19T02:15:21.500Z,100181.38
2023-06-19T02:20:25.641Z,100182.44
2023-06-19T02:25:27.335Z,100180.34
2023-06-19T02:30:28.843Z,100184.13
2023-06-19T02:35:30.570Z,100192.03
2023-06-19T02:40:32.101Z,100183.25
2023-06-19T02:45:33.660Z,100180.13
2023-06-19T02:50:35.437Z,100176.38
2023-06-19T02:55:36.967Z,100170.53
2023-06-19T03:00:39.015Z,100166.97
2023-06-19T03:05:40.536Z,100167.41
2023-06-19T03:10:42.043Z,100164.03
2023-06-19T03:15:43.609Z,100165.09
2023-06-19T03:20:45.493Z,100168.66
2023-06-19T03:25:47.048Z,100166.31
2023-06-19T03:30:48.746Z,100171.97
2023-06-19T03:35:55.081Z,100173.84
2023-06-19T03:41:15.360Z,100166.34
2023-06-19T03:46:17.664Z,100163.63
2023-06-19T03:51:19.227Z,100173.63
2023-06-19T03:56:20.723Z,100165.94
2023-06-19T04:01:22.249Z,100166.13
2023-06-19T04:06:24.465Z,100173.00
2023-06-19T04:11:25.952Z,100161.97
2023-06-19T04:16:27.603Z,100170.03
2023-06-19T04:21:29.355Z,100184.72
2023-06-19T04:26:30.885Z,100175.34
2023-06-19T04:31:32.477Z,100174.66
2023-06-19T04:36:33.976Z,100175.81
2023-06-19T04:41:39.380Z,100180.97
2023-06-19T04:46:41.974Z,100174.88
2023-06-19T04:51:43.488Z,100185.22
2023-06-19T04:56:44.969Z,100190.16
2023-06-19T05:01:46.516Z,100198.91
2023-06-19T05:06:48.036Z,100198.03
2023-06-19T05:11:49.551Z,100191.09
2023-06-19T05:16:51.213Z,100186.97
2023-06-19T05:21:52.776Z,100184.94
2023-06-19T05:26:54.270Z,100184.09
2023-06-19T05:31:55.782Z,100186.78
2023-06-19T05:36:58.813Z,100195.78
2023-06-19T05:42:00.297Z,100189.94
2023-06-19T05:47:01.804Z,100189.75
2023-06-19T05:52:03.863Z,100191.41
2023-06-19T05:57:05.674Z,100199.31
2023-06-19T06:02:07.292Z,100185.56
2023-06-19T06:07:09.114Z,100193.50
2023-06-19T06:12:10.607Z,100194.75
2023-06-19T06:17:12.298Z,100208.75
2023-06-19T06:22:13.784Z,100207.91
2023-06-19T06:27:15.273Z,100210.19
2023-06-19T06:32:16.997Z,100221.50
2023-06-19T06:37:23.518Z,100220.22
2023-06-19T06:42:24.999Z,100225.03
2023-06-19T06:47:26.516Z,100221.69
2023-06-19T06:52:29.056Z,100223.34
2023-06-19T06:57:30.585Z,100228.97
2023-06-19T07:02:32.214Z,100224.38
2023-06-19T07:07:33.795Z,100235.25
2023-06-19T07:12:35.304Z,100223.28
2023-06-19T07:17:36.852Z,100223.03
2023-06-19T07:22:38.916Z,100229.72
2023-06-19T07:27:43.443Z,100223.16
2023-06-19T07:32:45.052Z,100215.41
2023-06-19T07:37:46.650Z,100225.75
2023-06-19T07:42:48.158Z,100227.69
2023-06-19T07:47:57.142Z,100236.63
2023-06-19T07:52:59.056Z,100240.72
2023-06-19T07:58:00.537Z,100239.03
2023-06-19T08:03:02.412Z,100241.50
2023-06-19T08:08:04.104Z,100236.66
2023-06-19T08:13:05.596Z,100235.31
2023-06-19T08:18:07.120Z,100249.16
2023-06-19T08:23:08.623Z,100249.41
2023-06-19T08:28:10.489Z,100248.78
2023-06-19T08:33:12.046Z,100245.63
2023-06-19T08:38:13.573Z,100250.00
2023-06-19T08:43:15.095Z,100253.97
2023-06-19T08:48:16.573Z,100249.47
2023-06-19T08:53:18.081Z,100249.09
2023-06-19T08:58:24.378Z,100249.94
2023-06-19T09:03:26.262Z,100249.63
2023-06-19T09:08:27.854Z,100247.84
2023-06-19T09:13:33.122Z,100248.56
2023-06-19T09:18:47.861Z,100257.34
2023-06-19T09:23:53.057Z,100246.81
2023-06-19T09:29:16.053Z,100251.16
2023-06-19T09:34:19.358Z,100255.56
2023-06-19T09:39:24.205Z,100248.44
2023-06-19T09:44:27.721Z,100250.88
2023-06-19T09:49:32.973Z,100241.09
2023-06-19T09:54:35.945Z,100229.78
2023-06-19T09:59:40.846Z,100241.44
2023-06-19T10:04:46.898Z,100244.16
2023-06-19T10:10:01.862Z,100233.91
2023-06-19T10:15:19.624Z,100221.22
2023-06-19T10:20:32.301Z,100224.69
2023-06-19T10:25:36.147Z,100227.75
2023-06-19T10:30:37.778Z,100216.81
2023-06-19T10:35:41.151Z,100229.19
2023-06-19T10:40:43.298Z,100218.00
2023-06-19T10:45:45.301Z,100206.97
2023-06-19T10:50:48.206Z,100207.66
2023-06-19T10:55:49.703Z,100208.00
2023-06-19T11:00:51.202Z,100203.63
2023-06-19T11:05:52.734Z,100210.50
2023-06-19T11:10:54.302Z,100216.19
2023-06-19T11:15:55.929Z,100214.22
2023-06-19T11:20:57.820Z,100203.66
2023-06-19T11:26:06.585Z,100199.16
2023-06-19T11:31:08.345Z,100192.03
2023-06-19T11:36:09.926Z,100181.59
2023-06-19T11:41:11.710Z,100181.97
2023-06-19T11:46:17.099Z,100185.56
2023-06-19T11:51:18.705Z,100186.78
2023-06-19T11:56:20.201Z,100177.94
2023-06-19T12:01:22.076Z,100164.25
2023-06-19T12:06:23.880Z,100171.09
2023-06-19T12:11:26.066Z,100166.06
2023-06-19T12:16:29.505Z,100173.78
2023-06-19T12:21:37.532Z,100170.56
2023-06-19T12:26:41.166Z,100157.00
2023-06-19T12:31:44.730Z,100164.25
2023-06-19T12:36:46.221Z,100161.72
2023-06-19T12:41:47.693Z,100151.19
2023-06-19T12:46:49.324Z,100154.19
2023-06-19T12:51:53.047Z,100152.22
2023-06-19T12:56:54.826Z,100148.19
2023-06-19T13:01:56.429Z,100145.50
2023-06-19T13:06:57.954Z,100143.81
2023-06-19T13:11:59.464Z,100135.81
2023-06-19T13:17:01.196Z,100139.09
2023-06-19T13:22:02.780Z,100140.69
2023-06-19T13:27:04.596Z,100133.34
2023-06-19T13:32:06.623Z,100123.56
2023-06-19T13:37:08.149Z,100120.53
2023-06-19T13:42:09.662Z,100119.81
2023-06-19T13:47:36.682Z,100121.28
2023-06-19T13:52:38.298Z,100116.75
2023-06-19T13:57:41.307Z,100118.34
2023-06-19T14:02:42.987Z,100104.22
2023-06-19T14:07:44.701Z,100100.22
2023-06-19T14:12:46.408Z,100104.22
2023-06-19T14:17:48.125Z,100102.84
2023-06-19T14:22:49.805Z,100091.38
2023-06-19T14:27:51.378Z,100093.03
2023-06-19T14:32:54.038Z,100094.06
2023-06-19T14:37:55.691Z,100091.97
2023-06-19T14:42:57.211Z,100104.13
2023-06-19T14:47:58.800Z,100107.22
2023-06-19T14:53:00.318Z,100109.13
2023-06-19T15:03:18.457Z,100097.25
2023-06-19T15:08:23.012Z,100096.00
2023-06-19T15:13:24.548Z,100092.44
2023-06-19T15:18:27.718Z,100096.06
2023-06-19T15:23:29.380Z,100093.28
2023-06-19T15:28:32.228Z,100091.38
2023-06-19T15:33:33.695Z,100096.06
2023-06-19T15:38:36.347Z,100094.41
2023-06-19T15:43:38.766Z,100087.94
2023-06-19T15:48:40.438Z,100090.94
2023-06-19T15:53:42.072Z,100092.00
2023-06-19T15:58:43.563Z,100086.81
2023-06-19T16:03:45.149Z,100084.91
2023-06-19T16:08:46.783Z,100080.81
2023-06-19T16:13:48.291Z,100084.66
2023-06-19T16:18:49.783Z,100073.53
2023-06-19T16:23:51.471Z,100078.44
2023-06-19T16:28:53.012Z,100069.03
2023-06-19T16:33:54.491Z,100063.84
2023-06-19T16:38:56.000Z,100068.78
2023-06-19T16:43:57.490Z,100069.19
2023-06-19T16:49:24.038Z,100069.91
2023-06-19T16:54:25.628Z,100070.44
2023-06-19T16:59:27.176Z,100078.53
2023-06-19T17:04:28.655Z,100079.50
2023-06-19T17:09:30.138Z,100060.88
2023-06-19T17:14:31.688Z,100070.06
2023-06-19T17:19:33.184Z,100065.53
2023-06-19T17:24:34.885Z,100071.00
2023-06-19T17:29:36.453Z,100071.69
2023-06-19T17:34:37.957Z,100080.78
2023-06-19T17:39:41.312Z,100070.50
2023-06-19T17:44:42.814Z,100082.97
2023-06-19T17:49:44.415Z,100087.53
2023-06-19T17:54:50.088Z,100088.34
2023-06-19T17:59:51.592Z,100082.66
2023-06-19T18:04:53.077Z,100087.28
2023-06-19T18:09:56.361Z,100088.19
2023-06-19T18:14:57.861Z,100088.19
2023-06-19T18:19:59.401Z,100081.75
2023-06-19T18:25:00.910Z,100088.81
2023-06-19T18:30:04.237Z,100090.06
2023-06-19T18:35:06.712Z,100084.09
2023-06-19T18:40:08.827Z,100087.88
2023-06-19T18:45:10.531Z,100092.97
2023-06-19T18:50:13.945Z,100092.81
2023-06-19T18:55:15.441Z,100088.00
2023-06-19T19:00:18.122Z,100093.63
2023-06-19T19:05:19.613Z,100102.84
2023-06-19T19:10:21.156Z,100103.81
2023-06-19T19:15:22.687Z,100112.19
2023-06-19T19:20:24.494Z,100106.16
2023-06-19T19:25:26.349Z,100106.81
2023-06-19T19:30:28.351Z,100110.75
2023-06-19T19:35:30.089Z,100119.59
2023-06-19T19:40:31.609Z,100122.59
2023-06-19T19:45:33.173Z,100128.41
2023-06-19T19:50:34.654Z,100133.88
2023-06-19T19:55:36.133Z,100142.97
2023-06-19T20:00:37.695Z,100145.09
2023-06-19T20:05:39.309Z,100153.56
2023-06-19T20:10:40.903Z,100154.88
2023-06-19T20:15:42.454Z,100156.22
2023-06-19T20:20:44.483Z,100148.19
2023-06-19T20:25:46.403Z,100151.66
2023-06-19T20:30:48.014Z,100156.78
2023-06-19T20:35:50.848Z,100159.66
2023-06-19T20:40:52.429Z,100173.03
2023-06-19T20:45:55.243Z,100167.22
2023-06-19T20:50:58.363Z,100166.25
2023-06-19T20:55:59.921Z,100161.78
2023-06-19T21:01:01.602Z,100167.16
2023-06-19T21:06:03.890Z,100170.13
2023-06-19T21:11:05.822Z,100174.06
2023-06-19T21:16:07.383Z,100174.91
2023-06-19T21:21:08.870Z,100169.03
2023-06-19T21:26:10.371Z,100168.34
2023-06-19T21:31:13.868Z,100177.84
2023-06-19T21:36:15.397Z,100178.75
2023-06-19T21:41:16.911Z,100183.56
2023-06-19T21:46:18.524Z,100189.88
2023-06-19T21:51:20.084Z,100183.25
2023-06-19T21:56:21.592Z,100188.03
2023-06-19T22:01:23.088Z,100185.03
2023-06-19T22:06:24.649Z,100193.66
2023-06-19T22:11:30.105Z,100192.91
2023-06-19T22:16:32.678Z,100185.91
2023-06-19T22:21:34.402Z,100194.47
2023-06-19T22:26:38.189Z,100194.59
2023-06-19T22:31:40.173Z,100190.41
2023-06-19T22:36:41.807Z,100195.63
2023-06-19T22:41:43.999Z,100194.94
2023-06-19T22:46:45.553Z,100201.59
2023-06-19T22:51:47.626Z,100210.44
2023-06-19T22:56:49.128Z,100217.03
2023-06-19T23:01:50.638Z,100217.16
2023-06-19T23:06:53.102Z,100222.16
2023-06-19T23:11:55.594Z,100226.00
2023-06-19T23:16:57.390Z,100213.50
2023-06-19T23:21:58.958Z,100212.78
